Startpagina
METAR-TAF:

METAR-TAF

Vliegvelden :

Nouakchott, Mauretanië

Internationale luchthaven van Nouakchott

breedte: 18-18-36N, lengte: 015-58-11W, hoogte: 3 m

Actueel weer

Dit bericht is 29 minuten geleden gemaakt, om 12:00 UTC
Wind 11 kt uit het noordnoordoosten, variërend tussen het noorden en het oostnoordoosten
Temperatuur 31°C
Vochtigheid 43%
Druk 1014 hPa
Zicht: 6000 m

METAR: GQNO 271200Z 02011KT 360V060 6000 NSC 31/17 Q1014 NOSIG

Tijdstip: 12:29 (12:29 UTC)

Verwachting

Dit bericht is 1 uur en het 29 minuten geleden gemaakt, om 11:00 UTC
Verwachting geldig van 27 om 12 UTC tot 28 om 18 UTC
Wind 13 kt uit het noordoosten
Zicht: 6000 m
Kans 30% :
Tijdelijke
van 28 om 03 UTC tot 28 om 06 UTC
Weinig wolken op 3000 ft, Cumulonimbus.
onweer
Wijzigt naar
van 27 om 15 UTC tot 27 om 17 UTC
Wind 13 kt uit het noordnoordwesten

TAF: GQNO 271100Z 2712/2818 04013KT 6000 NSC PROB30 TEMPO 2803/2806 TS FEW030CB BECMG 2715/2717 33013KT

Waarnemingen en weersverwachtingen van meer dan 4000 vliegvelden (METAR en TAF).

De beschikbare stations zijn de gele en rode punten op de kaart.

Ga met uw muis naar het station om de naam te zien.

Klik dan om waarnemingen en weersverwachtingen te zien.

kaart wijzigen: klik op de groene knoppen met een zwart kruis om in te zoomen, op de groene knop met een streepje om uit te zoomen of op de groene pijlen voor aangrenzende kaarten.


METAR-TAF: